Time;durP1;ratioP1;P1;durP2;ratioP2;P2;SDS_P1;SDS_P2;PMS_P1;PMS_P2;Temp;Humidity;BMP_temperature;BMP_pressure;BME280_temperature;BME280_humidity;BME280_pressure;Samples;Min_cycle;Max_cycle;Signal;HPM_P1;HPM_P2
2023/03/04 00:02:26;;;;;;;44.97;20.42;;;2.70;99.90;;;;;;7336954;32;20180;-55
2023/03/04 00:06:28;;;;;;;40.65;20.88;;;2.70;99.90;;;;;;7335280;32;20265;-55
2023/03/04 00:10:30;;;;;;;42.05;20.85;;;2.70;99.90;;;;;;7336681;32;20198;-55
2023/03/04 00:14:32;;;;;;;44.67;22.20;;;2.70;99.90;;;;;;7335465;32;20547;-55
2023/03/04 00:18:33;;;;;;;38.17;19.12;;;2.80;99.90;;;;;;7334682;32;20207;-55
2023/03/04 00:22:35;;;;;;;46.05;21.77;;;2.70;99.90;;;;;;7334752;32;20170;-55
2023/03/04 00:26:37;;;;;;;39.05;20.05;;;2.80;99.90;;;;;;7337838;32;20427;-55
2023/03/04 00:30:38;;;;;;;42.30;19.73;;;2.80;99.90;;;;;;7334136;32;20236;-56
2023/03/04 00:34:41;;;;;;;41.63;19.90;;;2.80;99.90;;;;;;7332429;32;20160;-55
2023/03/04 00:38:43;;;;;;;39.08;19.75;;;2.80;99.90;;;;;;7336269;32;20230;-55
2023/03/04 00:42:45;;;;;;;37.70;19.52;;;2.80;99.90;;;;;;7336633;32;20187;-55
2023/03/04 00:46:46;;;;;;;40.30;20.02;;;2.80;99.90;;;;;;7335750;32;20230;-55
2023/03/04 00:50:50;;;;;;;41.53;21.45;;;2.80;99.90;;;;;;7333998;32;20229;-54
2023/03/04 00:54:52;;;;;;;39.25;20.88;;;2.80;99.90;;;;;;7333045;32;20187;-55
2023/03/04 00:58:54;;;;;;;41.13;19.77;;;2.90;99.90;;;;;;7336446;32;20242;-54
2023/03/04 01:02:56;;;;;;;38.65;19.35;;;2.90;99.90;;;;;;7334857;32;20130;-55
2023/03/04 01:06:57;;;;;;;44.60;20.58;;;2.90;99.90;;;;;;7334123;32;20159;-55
2023/03/04 01:10:59;;;;;;;40.00;20.98;;;2.90;99.90;;;;;;7336482;32;20108;-54
2023/03/04 01:15:01;;;;;;;40.45;20.25;;;2.80;99.90;;;;;;7336015;32;20226;-56
2023/03/04 01:19:02;;;;;;;38.33;20.40;;;2.80;99.90;;;;;;7334927;32;20099;-55
2023/03/04 01:23:04;;;;;;;38.25;19.70;;;2.90;99.90;;;;;;7339319;32;20273;-55
2023/03/04 01:27:06;;;;;;;38.75;19.70;;;2.90;99.90;;;;;;7337478;32;20331;-54
2023/03/04 01:31:07;;;;;;;40.92;19.45;;;2.90;99.90;;;;;;7338590;32;20134;-54
2023/03/04 01:35:10;;;;;;;43.08;19.35;;;3.00;99.90;;;;;;7339219;32;20145;-54
2023/03/04 01:39:11;;;;;;;38.38;18.27;;;3.00;99.90;;;;;;7334729;32;20222;-54
2023/03/04 01:43:25;;;;;;;35.00;17.87;;;3.00;99.90;;;;;;7337234;32;20133;-54
2023/03/04 01:47:29;;;;;;;35.20;18.33;;;3.00;99.90;;;;;;7332327;32;20107;-54
2023/03/04 01:51:31;;;;;;;36.38;19.02;;;3.00;99.90;;;;;;7334889;32;20149;-54
2023/03/04 01:55:33;;;;;;;41.13;20.70;;;3.00;99.90;;;;;;7338788;32;20107;-54
2023/03/04 01:59:35;;;;;;;39.92;19.20;;;3.00;99.90;;;;;;7333750;32;20111;-55
2023/03/04 02:03:37;;;;;;;34.08;18.65;;;3.00;99.90;;;;;;7331986;32;22036;-54
2023/03/04 02:07:39;;;;;;;37.13;17.83;;;3.00;99.90;;;;;;7333754;32;20280;-54
2023/03/04 02:11:42;;;;;;;32.70;17.62;;;3.10;99.90;;;;;;7336529;32;20111;-55
2023/03/04 02:15:45;;;;;;;40.60;18.48;;;3.00;99.90;;;;;;7333514;32;20168;-55
2023/03/04 02:19:53;;;;;;;34.38;17.02;;;3.00;99.90;;;;;;7333562;32;20108;-55
2023/03/04 02:24:25;;;;;;;37.05;18.55;;;3.10;99.90;;;;;;7341567;32;20275;-55
2023/03/04 02:28:27;;;;;;;33.53;17.80;;;3.20;99.90;;;;;;7338869;32;20673;-55
2023/03/04 02:32:29;;;;;;;31.15;15.82;;;3.10;99.90;;;;;;7331381;32;20198;-55
2023/03/04 02:36:32;;;;;;;34.67;18.45;;;3.10;99.90;;;;;;7340212;32;20513;-55
2023/03/04 02:40:34;;;;;;;37.22;18.15;;;3.20;99.90;;;;;;7336252;32;20163;-55
2023/03/04 02:44:38;;;;;;;38.80;18.20;;;3.20;99.90;;;;;;7341116;32;20464;-55
2023/03/04 02:48:40;;;;;;;32.28;17.48;;;3.20;99.90;;;;;;7338016;32;20312;-55
2023/03/04 02:52:42;;;;;;;34.33;17.05;;;3.20;99.90;;;;;;7337638;32;20438;-55
2023/03/04 02:56:46;;;;;;;31.37;15.55;;;3.10;99.90;;;;;;7333643;32;20108;-55
2023/03/04 03:00:47;;;;;;;31.85;16.52;;;3.20;99.90;;;;;;7341107;32;20115;-55
2023/03/04 03:04:49;;;;;;;33.15;15.52;;;3.20;99.90;;;;;;7338947;32;20274;-55
2023/03/04 03:08:51;;;;;;;29.42;15.95;;;3.20;99.90;;;;;;7334666;32;20116;-55
2023/03/04 03:12:53;;;;;;;32.28;15.10;;;3.20;99.90;;;;;;7340857;32;20168;-55
2023/03/04 03:16:54;;;;;;;33.85;17.35;;;3.20;99.90;;;;;;7335586;32;20092;-55
2023/03/04 03:20:56;;;;;;;35.03;15.75;;;3.20;99.90;;;;;;7336480;32;20115;-55
2023/03/04 03:24:58;;;;;;;31.37;15.35;;;3.20;99.90;;;;;;7336932;32;20522;-55
2023/03/04 03:29:00;;;;;;;31.90;16.60;;;3.20;99.90;;;;;;7340371;32;20638;-55
2023/03/04 03:33:01;;;;;;;36.67;15.38;;;3.20;99.90;;;;;;7339364;32;20712;-55
2023/03/04 03:37:03;;;;;;;30.48;14.77;;;3.30;99.90;;;;;;7335244;32;20605;-55
2023/03/04 03:41:05;;;;;;;20.90;11.52;;;3.30;99.90;;;;;;7338380;32;20202;-55
2023/03/04 03:45:07;;;;;;;21.55;10.32;;;3.30;99.90;;;;;;7335126;32;20161;-53
2023/03/04 03:49:08;;;;;;;21.05;7.15;;;3.50;99.90;;;;;;7339532;32;20333;-55
2023/03/04 03:53:10;;;;;;;17.27;7.00;;;3.60;99.90;;;;;;7339409;32;20156;-54
2023/03/04 03:57:12;;;;;;;23.45;7.28;;;3.50;99.90;;;;;;7337952;32;20131;-55
2023/03/04 04:01:14;;;;;;;21.17;5.97;;;3.60;99.90;;;;;;7342766;32;20237;-55
2023/03/04 04:05:16;;;;;;;17.92;5.93;;;3.70;99.90;;;;;;7337928;32;20172;-55
2023/03/04 04:09:17;;;;;;;16.62;5.07;;;3.60;99.90;;;;;;7342763;32;20249;-55
2023/03/04 04:13:19;;;;;;;17.85;5.03;;;3.70;99.90;;;;;;7341436;32;20306;-55
2023/03/04 04:17:21;;;;;;;17.08;4.57;;;3.80;99.90;;;;;;7332090;32;20126;-54
2023/03/04 04:21:23;;;;;;;18.73;4.20;;;3.80;99.90;;;;;;7329891;32;20137;-56
2023/03/04 04:25:24;;;;;;;24.35;4.03;;;3.80;99.90;;;;;;7347219;32;20137;-55
2023/03/04 04:29:26;;;;;;;22.35;3.80;;;3.80;99.90;;;;;;7342536;32;22194;-54
2023/03/04 04:33:28;;;;;;;17.40;4.40;;;3.80;99.90;;;;;;7341625;32;20108;-55
2023/03/04 04:37:30;;;;;;;18.48;3.53;;;3.80;99.90;;;;;;7337371;32;20341;-55
2023/03/04 04:41:37;;;;;;;19.48;3.50;;;4.00;99.90;;;;;;7339993;32;20115;-55
2023/03/04 04:45:38;;;;;;;14.60;3.22;;;4.00;99.90;;;;;;7337753;32;20131;-55
2023/03/04 04:49:40;;;;;;;14.90;3.40;;;4.00;99.90;;;;;;7337020;32;20111;-55
2023/03/04 04:53:43;;;;;;;19.80;3.62;;;4.00;99.90;;;;;;7340423;32;20127;-55
2023/03/04 04:57:46;;;;;;;19.23;3.75;;;4.00;99.90;;;;;;7335820;32;20161;-55
2023/03/04 05:01:47;;;;;;;17.65;3.25;;;4.00;99.90;;;;;;7338670;32;20222;-55
2023/03/04 05:05:49;;;;;;;14.00;3.55;;;4.10;99.90;;;;;;7334132;32;20288;-55
2023/03/04 05:09:51;;;;;;;15.85;3.30;;;4.20;99.90;;;;;;7327263;32;20145;-54
2023/03/04 05:13:53;;;;;;;15.63;3.20;;;4.30;99.90;;;;;;7341639;32;20425;-55
2023/03/04 05:17:54;;;;;;;10.95;3.53;;;4.20;99.90;;;;;;7347079;32;20202;-55
2023/03/04 05:21:56;;;;;;;14.45;3.58;;;4.10;99.90;;;;;;7342918;32;20139;-55
2023/03/04 05:25:58;;;;;;;14.73;3.25;;;4.20;99.90;;;;;;7340593;32;20138;-55
2023/03/04 05:30:00;;;;;;;9.82;2.90;;;4.20;99.90;;;;;;7339771;32;20217;-54
2023/03/04 05:34:02;;;;;;;15.05;3.10;;;4.20;99.90;;;;;;7338111;32;20115;-55
2023/03/04 05:38:05;;;;;;;13.55;2.75;;;4.20;99.90;;;;;;7338435;32;20453;-55
2023/03/04 05:42:07;;;;;;;11.65;3.10;;;4.20;99.90;;;;;;7337462;32;20241;-55
2023/03/04 05:46:13;;;;;;;12.95;2.50;;;4.20;99.90;;;;;;7336217;32;20100;-54
2023/03/04 05:50:15;;;;;;;14.68;3.20;;;4.20;99.90;;;;;;7338835;32;20514;-55
2023/03/04 05:54:16;;;;;;;20.23;3.28;;;4.30;99.90;;;;;;7340151;32;20133;-55
2023/03/04 05:58:19;;;;;;;15.32;3.15;;;4.30;99.90;;;;;;7334844;32;20123;-54
2023/03/04 06:02:20;;;;;;;12.88;2.87;;;4.30;99.90;;;;;;7332178;32;20104;-54
2023/03/04 06:06:22;;;;;;;15.80;3.25;;;4.20;99.90;;;;;;7331936;32;20115;-55
2023/03/04 06:10:24;;;;;;;9.32;2.67;;;4.30;99.90;;;;;;7339838;32;20190;-54
2023/03/04 06:14:26;;;;;;;12.77;3.50;;;4.20;99.90;;;;;;7345059;32;20132;-55
2023/03/04 06:18:28;;;;;;;13.13;3.62;;;4.30;99.90;;;;;;7336342;32;20624;-55
2023/03/04 06:22:30;;;;;;;14.93;3.20;;;4.40;99.90;;;;;;7336995;32;20313;-54
2023/03/04 06:26:31;;;;;;;16.12;2.60;;;4.30;99.90;;;;;;7340386;32;20195;-54
2023/03/04 06:30:33;;;;;;;14.00;2.83;;;4.50;99.90;;;;;;7336280;32;20794;-56
2023/03/04 06:34:35;;;;;;;12.70;3.45;;;4.40;99.90;;;;;;7331550;32;20108;-54
2023/03/04 06:38:36;;;;;;;13.60;3.03;;;4.40;99.90;;;;;;7341584;32;20194;-55
2023/03/04 06:42:39;;;;;;;10.90;2.83;;;4.30;99.90;;;;;;7337986;32;20255;-55
2023/03/04 06:46:41;;;;;;;14.85;3.62;;;4.40;99.90;;;;;;7341937;32;20123;-54
2023/03/04 06:50:42;;;;;;;12.25;4.00;;;4.40;99.90;;;;;;7328834;32;20123;-55
2023/03/04 06:54:44;;;;;;;13.00;3.75;;;4.40;99.90;;;;;;7332339;32;20844;-56
2023/03/04 06:58:46;;;;;;;14.48;4.45;;;4.40;99.90;;;;;;7339350;32;20523;-54
2023/03/04 07:02:48;;;;;;;13.85;4.70;;;4.30;99.90;;;;;;7336389;32;20137;-54
2023/03/04 07:06:50;;;;;;;19.50;4.85;;;4.40;99.90;;;;;;7335268;32;20652;-56
2023/03/04 07:10:52;;;;;;;16.50;4.30;;;4.60;99.90;;;;;;7333631;32;20135;-55
2023/03/04 07:14:53;;;;;;;12.15;4.57;;;4.60;99.90;;;;;;7341016;32;20669;-55
2023/03/04 07:18:55;;;;;;;10.60;3.67;;;4.60;99.90;;;;;;7341212;32;20488;-55
2023/03/04 07:22:56;;;;;;;20.23;3.87;;;4.50;99.90;;;;;;7343800;32;20119;-56
2023/03/04 07:26:58;;;;;;;14.00;3.80;;;4.50;99.90;;;;;;7342341;32;20285;-56
2023/03/04 07:31:10;;;;;;;16.52;3.67;;;4.60;99.90;;;;;;7333567;32;20274;-57
2023/03/04 07:35:12;;;;;;;15.07;3.83;;;4.60;99.90;;;;;;7339031;32;20250;-55
2023/03/04 07:39:14;;;;;;;16.85;4.30;;;4.60;99.90;;;;;;7342044;32;20104;-56
2023/03/04 07:43:15;;;;;;;14.50;3.50;;;4.70;99.90;;;;;;7342826;32;20106;-55
2023/03/04 07:47:18;;;;;;;14.30;3.00;;;4.70;99.90;;;;;;7334007;32;20137;-56
2023/03/04 07:51:22;;;;;;;12.40;3.62;;;4.80;99.90;;;;;;7340750;32;20103;-56
2023/03/04 07:55:23;;;;;;;15.27;3.53;;;4.80;99.90;;;;;;7338094;32;20112;-57
2023/03/04 07:59:25;;;;;;;11.50;2.90;;;4.90;99.90;;;;;;7333158;32;20222;-56
2023/03/04 08:03:28;;;;;;;17.00;3.42;;;4.90;99.90;;;;;;7337836;32;20201;-56
2023/03/04 08:07:30;;;;;;;11.73;3.37;;;5.00;99.90;;;;;;7336030;32;20332;-56
2023/03/04 08:11:32;;;;;;;16.90;4.15;;;4.90;99.90;;;;;;7341344;32;20118;-55
2023/03/04 08:15:39;;;;;;;17.62;4.15;;;4.90;99.90;;;;;;7337834;32;20129;-56
2023/03/04 08:19:41;;;;;;;16.58;3.40;;;5.10;99.90;;;;;;7334946;32;20836;-57
2023/03/04 08:23:43;;;;;;;14.60;4.03;;;5.40;99.90;;;;;;7335667;32;20112;-56
2023/03/04 08:27:44;;;;;;;12.93;3.00;;;5.50;99.90;;;;;;7331486;32;20268;-56
2023/03/04 08:31:47;;;;;;;12.48;2.83;;;5.80;99.90;;;;;;7334150;32;20179;-56
2023/03/04 08:35:49;;;;;;;10.48;2.47;;;6.20;99.90;;;;;;7340559;32;20194;-56
2023/03/04 08:39:51;;;;;;;10.68;3.00;;;6.30;99.90;;;;;;7335608;32;20699;-56
2023/03/04 08:43:53;;;;;;;11.15;2.53;;;6.10;99.90;;;;;;7343406;32;20133;-57
2023/03/04 08:47:55;;;;;;;10.70;3.33;;;6.10;99.90;;;;;;7333173;32;20108;-56
2023/03/04 08:51:56;;;;;;;12.02;2.85;;;6.10;99.90;;;;;;7331203;32;20107;-55
2023/03/04 08:55:58;;;;;;;9.13;2.85;;;6.10;99.90;;;;;;7338388;32;20135;-56
2023/03/04 08:59:59;;;;;;;12.65;4.12;;;5.80;99.90;;;;;;7338483;32;20233;-56
2023/03/04 09:04:01;;;;;;;9.50;3.60;;;5.80;99.90;;;;;;7337331;32;20115;-56
2023/03/04 09:08:03;;;;;;;9.65;2.58;;;5.70;99.90;;;;;;7334570;32;20136;-56
2023/03/04 09:12:05;;;;;;;8.73;2.08;;;5.70;99.90;;;;;;7332051;32;20142;-56
2023/03/04 09:16:11;;;;;;;12.57;1.92;;;5.70;99.90;;;;;;7341242;32;20750;-55
2023/03/04 09:20:13;;;;;;;7.97;2.55;;;5.70;99.90;;;;;;7342323;32;20162;-57
2023/03/04 09:24:15;;;;;;;15.13;3.37;;;5.50;99.90;;;;;;7342824;32;20258;-57
2023/03/04 09:28:18;;;;;;;12.88;2.50;;;5.50;99.90;;;;;;7336771;32;20104;-56
2023/03/04 09:32:19;;;;;;;12.15;2.70;;;5.40;99.90;;;;;;7331806;32;20256;-56
2023/03/04 09:36:21;;;;;;;6.32;1.98;;;5.60;99.90;;;;;;7332566;32;20107;-56
2023/03/04 09:40:31;;;;;;;6.62;2.12;;;5.80;99.90;;;;;;7340398;32;20115;-56
2023/03/04 09:44:35;;;;;;;4.70;1.45;;;6.00;99.90;;;;;;7333152;32;20262;-57
2023/03/04 09:48:47;;;;;;;8.20;1.52;;;6.10;99.90;;;;;;7336201;32;20111;-56
2023/03/04 09:52:55;;;;;;;9.60;1.80;;;6.20;99.90;;;;;;7329269;32;20195;-56
2023/03/04 09:57:12;;;;;;;7.05;1.92;;;6.10;99.90;;;;;;7337912;32;20301;-56
2023/03/04 10:01:25;;;;;;;8.43;1.70;;;6.10;99.90;;;;;;7337231;32;20149;-57
2023/03/04 10:05:30;;;;;;;7.32;2.50;;;6.10;99.90;;;;;;7332913;32;20198;-56
2023/03/04 10:09:47;;;;;;;11.77;3.05;;;6.40;99.90;;;;;;7330829;32;20112;-56
2023/03/04 10:14:20;;;;;;;7.60;2.47;;;6.70;99.90;;;;;;7337349;32;20133;-57
2023/03/04 10:18:28;;;;;;;5.80;1.90;;;6.60;99.90;;;;;;7333142;32;20210;-56
2023/03/04 10:22:35;;;;;;;8.45;2.78;;;6.60;99.90;;;;;;7335962;32;20334;-55
2023/03/04 10:26:37;;;;;;;8.48;1.62;;;6.50;99.90;;;;;;7329730;32;20134;-56
2023/03/04 10:30:58;;;;;;;4.68;1.45;;;6.70;99.90;;;;;;7341569;32;20140;-56
2023/03/04 10:35:00;;;;;;;8.13;1.50;;;6.90;99.90;;;;;;7330044;32;20293;-56
2023/03/04 10:39:32;;;;;;;4.43;1.80;;;7.00;99.90;;;;;;7329520;32;20795;-57
2023/03/04 10:43:33;;;;;;;10.88;2.92;;;7.30;99.90;;;;;;7338727;32;20144;-56
2023/03/04 10:47:35;;;;;;;8.40;2.50;;;7.20;99.90;;;;;;7329742;32;20108;-56
2023/03/04 10:51:49;;;;;;;5.40;1.85;;;7.10;99.90;;;;;;7338231;32;20222;-56
2023/03/04 10:55:50;;;;;;;7.75;1.90;;;7.10;99.90;;;;;;7342181;32;20626;-56
2023/03/04 11:00:26;;;;;;;6.95;2.30;;;7.10;99.90;;;;;;7336527;32;20186;-56
2023/03/04 11:04:33;;;;;;;6.95;1.10;;;7.20;99.90;;;;;;7336456;32;20518;-56
2023/03/04 11:08:35;;;;;;;7.50;1.98;;;6.90;99.90;;;;;;7341685;32;20287;-57
2023/03/04 11:12:37;;;;;;;3.75;1.10;;;6.90;99.90;;;;;;7336412;32;20141;-56
2023/03/04 11:16:38;;;;;;;7.07;1.27;;;6.90;99.90;;;;;;7340672;32;20125;-56
2023/03/04 11:20:45;;;;;;;5.30;1.40;;;7.30;99.90;;;;;;7334463;32;20215;-56
2023/03/04 11:24:56;;;;;;;8.25;2.78;;;7.60;99.90;;;;;;7336450;32;20156;-57
2023/03/04 11:29:07;;;;;;;14.50;8.98;;;7.40;99.90;;;;;;7336897;32;20214;-55
2023/03/04 11:33:21;;;;;;;18.17;8.88;;;7.30;99.90;;;;;;7335984;32;20243;-56
2023/03/04 11:37:39;;;;;;;11.18;5.20;;;7.10;99.90;;;;;;7339648;32;20164;-56
2023/03/04 11:41:49;;;;;;;2.75;1.37;;;7.30;99.90;;;;;;7343794;32;20139;-57
2023/03/04 11:46:31;;;;;;;6.07;1.08;;;7.70;99.90;;;;;;7336600;32;20399;-56
2023/03/04 11:50:55;;;;;;;3.28;1.10;;;7.70;99.90;;;;;;7341121;32;20142;-57
2023/03/04 11:55:00;;;;;;;4.22;1.12;;;7.80;99.90;;;;;;7335758;32;20171;-56
2023/03/04 11:59:07;;;;;;;7.07;1.58;;;7.70;99.90;;;;;;7329525;32;20253;-56
2023/03/04 12:03:21;;;;;;;5.28;1.20;;;7.70;99.90;;;;;;7338852;32;20223;-57
2023/03/04 12:07:52;;;;;;;9.43;3.08;;;7.70;99.90;;;;;;7334590;32;20462;-56
2023/03/04 12:12:22;;;;;;;12.40;3.70;;;7.50;99.90;;;;;;7328284;32;20812;-56
2023/03/04 12:16:42;;;;;;;5.05;2.45;;;7.40;99.90;;;;;;7335446;32;20127;-57
2023/03/04 12:21:12;;;;;;;5.72;2.28;;;7.30;99.90;;;;;;7341328;32;20142;-57
2023/03/04 12:25:28;;;;;;;7.37;1.95;;;7.30;99.90;;;;;;7326588;32;20564;-57
2023/03/04 12:29:45;;;;;;;2.87;1.30;;;7.10;99.90;;;;;;7332765;32;20226;-56
2023/03/04 12:34:20;;;;;;;6.25;1.27;;;7.10;99.90;;;;;;7338009;32;20207;-56
2023/03/04 12:38:56;;;;;;;2.58;0.88;;;7.00;99.90;;;;;;7337420;32;20816;-57
2023/03/04 12:43:16;;;;;;;2.90;2.22;;;7.40;99.90;;;;;;7326834;32;20474;-56
2023/03/04 12:48:04;;;;;;;6.43;1.90;;;7.60;99.90;;;;;;7335257;32;20107;-57
2023/03/04 12:52:28;;;;;;;3.03;1.83;;;7.70;99.90;;;;;;7314293;32;20465;-57
2023/03/04 12:56:48;;;;;;;7.55;2.75;;;7.60;99.90;;;;;;7336562;32;20127;-56
2023/03/04 13:01:20;;;;;;;5.05;2.20;;;7.40;99.90;;;;;;7333944;32;20263;-56
2023/03/04 13:05:50;;;;;;;4.78;1.50;;;7.40;99.90;;;;;;7330320;32;20129;-57
2023/03/04 13:09:59;;;;;;;3.53;1.55;;;7.30;99.90;;;;;;7332223;32;20108;-58
2023/03/04 13:14:13;;;;;;;4.80;3.15;;;7.20;99.90;;;;;;7340494;32;20182;-57
2023/03/04 13:18:34;;;;;;;7.30;3.72;;;7.00;99.90;;;;;;7337518;32;20162;-57
2023/03/04 13:22:39;;;;;;;7.53;3.10;;;6.80;99.90;;;;;;7332809;32;20264;-57
2023/03/04 13:26:40;;;;;;;5.20;2.03;;;6.80;99.90;;;;;;7330351;32;20234;-57
2023/03/04 13:30:54;;;;;;;3.65;2.28;;;6.80;99.90;;;;;;7339894;32;20108;-57
2023/03/04 13:34:56;;;;;;;2.30;1.40;;;6.70;99.90;;;;;;7336391;32;20209;-57
2023/03/04 13:39:13;;;;;;;2.40;2.00;;;6.80;99.90;;;;;;7333097;32;20682;-57
2023/03/04 13:43:27;;;;;;;5.17;1.60;;;6.80;99.90;;;;;;7343491;32;20450;-57
2023/03/04 13:47:42;;;;;;;3.87;1.60;;;6.80;99.90;;;;;;7332896;32;20247;-57
2023/03/04 13:51:44;;;;;;;4.22;1.48;;;7.10;99.90;;;;;;7333644;32;20530;-57
2023/03/04 13:56:05;;;;;;;2.40;1.40;;;7.20;99.90;;;;;;7329265;32;20135;-57
2023/03/04 14:00:12;;;;;;;3.78;1.17;;;7.10;99.90;;;;;;7332075;32;20103;-56
2023/03/04 14:04:27;;;;;;;4.82;1.73;;;7.40;99.90;;;;;;7329706;32;20116;-57
2023/03/04 14:08:29;;;;;;;4.47;1.87;;;7.40;99.90;;;;;;7328572;32;20165;-57
2023/03/04 14:12:43;;;;;;;3.75;2.35;;;7.50;99.90;;;;;;7334210;32;20198;-57
2023/03/04 14:16:51;;;;;;;4.32;2.35;;;7.40;99.90;;;;;;7330122;32;20185;-57
2023/03/04 14:20:57;;;;;;;2.67;2.20;;;7.40;99.90;;;;;;7343285;32;20173;-57
2023/03/04 14:25:13;;;;;;;4.62;2.33;;;7.40;99.90;;;;;;7332827;32;20186;-57
2023/03/04 14:29:33;;;;;;;3.92;1.95;;;7.20;99.90;;;;;;7335090;32;20244;-57
2023/03/04 14:33:35;;;;;;;5.05;2.92;;;7.40;99.90;;;;;;7336707;32;20102;-56
2023/03/04 14:37:43;;;;;;;3.08;1.58;;;7.40;99.90;;;;;;7343040;32;20112;-58
2023/03/04 14:41:47;;;;;;;4.15;1.50;;;7.40;99.90;;;;;;7336480;32;20259;-56
2023/03/04 14:45:53;;;;;;;2.92;1.70;;;7.40;99.90;;;;;;7343774;32;20213;-57
2023/03/04 14:49:55;;;;;;;3.72;1.52;;;7.40;99.90;;;;;;7344795;32;20245;-57
2023/03/04 14:53:58;;;;;;;3.12;1.40;;;7.10;99.90;;;;;;7338737;32;20126;-56
2023/03/04 14:58:08;;;;;;;4.75;2.17;;;7.30;99.90;;;;;;7333180;32;20134;-56
2023/03/04 15:02:23;;;;;;;4.03;1.67;;;7.40;99.90;;;;;;7340388;32;20127;-56
2023/03/04 15:06:28;;;;;;;4.72;1.52;;;7.50;99.90;;;;;;7339814;32;20270;-56
2023/03/04 15:10:37;;;;;;;2.67;1.30;;;7.50;99.90;;;;;;7336110;32;20167;-55
2023/03/04 15:15:09;;;;;;;1.10;0.98;;;7.40;99.90;;;;;;7338871;32;20129;-55
2023/03/04 15:19:28;;;;;;;1.35;1.12;;;7.30;99.90;;;;;;7325961;32;20256;-55
2023/03/04 15:23:31;;;;;;;2.28;0.90;;;7.30;99.90;;;;;;7335750;32;20221;-56
2023/03/04 15:27:33;;;;;;;3.03;0.93;;;7.30;99.90;;;;;;7335665;32;20131;-57
2023/03/04 15:31:35;;;;;;;3.42;1.10;;;7.30;99.90;;;;;;7337673;32;20129;-56
2023/03/04 15:35:37;;;;;;;2.12;0.80;;;7.30;99.90;;;;;;7336261;32;20676;-56
2023/03/04 15:39:39;;;;;;;2.95;1.35;;;7.20;99.90;;;;;;7335916;32;20107;-56
2023/03/04 15:43:40;;;;;;;2.90;1.20;;;7.10;99.90;;;;;;7329621;32;20221;-56
2023/03/04 15:47:42;;;;;;;3.40;1.40;;;7.00;99.90;;;;;;7344457;32;20800;-55
2023/03/04 15:51:44;;;;;;;10.20;4.43;;;6.90;99.90;;;;;;7334692;32;20111;-58
2023/03/04 15:55:46;;;;;;;18.40;7.10;;;6.80;99.90;;;;;;7337265;32;20752;-57
2023/03/04 15:59:47;;;;;;;18.87;8.63;;;6.70;99.90;;;;;;7337203;32;20475;-58
2023/03/04 16:03:50;;;;;;;16.25;7.75;;;6.60;99.90;;;;;;7338982;32;20718;-55
2023/03/04 16:07:54;;;;;;;11.35;5.55;;;6.50;99.90;;;;;;7335850;32;20143;-57
2023/03/04 16:12:00;;;;;;;15.15;5.68;;;6.40;99.90;;;;;;7333970;32;20328;-58
2023/03/04 16:16:02;;;;;;;15.68;4.37;;;6.30;99.90;;;;;;7337409;32;20115;-58
2023/03/04 16:20:04;;;;;;;11.75;3.70;;;6.40;99.90;;;;;;7339191;32;20786;-59
2023/03/04 16:24:16;;;;;;;10.40;3.50;;;6.40;99.90;;;;;;7335375;32;20460;-58
2023/03/04 16:28:18;;;;;;;8.90;2.70;;;6.40;99.90;;;;;;7335220;32;20110;-58
2023/03/04 16:32:20;;;;;;;9.02;2.22;;;6.30;99.90;;;;;;7334731;32;20663;-58
2023/03/04 16:36:24;;;;;;;14.13;2.45;;;6.40;99.90;;;;;;7336591;32;20853;-58
2023/03/04 16:40:29;;;;;;;11.10;2.42;;;6.40;99.90;;;;;;7333759;32;20195;-58
2023/03/04 16:44:30;;;;;;;10.48;2.10;;;6.30;99.90;;;;;;7336358;32;20232;-57
2023/03/04 16:48:33;;;;;;;8.55;3.05;;;6.30;99.90;;;;;;7333153;32;20104;-57
2023/03/04 16:52:35;;;;;;;16.23;5.72;;;6.30;99.90;;;;;;7329676;32;20103;-58
2023/03/04 16:56:37;;;;;;;16.00;5.90;;;6.20;99.90;;;;;;7335812;32;20531;-58
2023/03/04 17:00:39;;;;;;;13.60;3.45;;;6.20;99.90;;;;;;7336662;32;20111;-55
2023/03/04 17:04:41;;;;;;;18.65;6.18;;;6.30;99.90;;;;;;7333495;32;20124;-56
2023/03/04 17:08:43;;;;;;;25.75;10.77;;;6.10;99.90;;;;;;7324842;32;20811;-57
2023/03/04 17:12:45;;;;;;;15.77;5.82;;;6.10;99.90;;;;;;7334864;32;20122;-56
2023/03/04 17:16:46;;;;;;;17.00;3.17;;;6.20;99.90;;;;;;7334479;32;20116;-56
2023/03/04 17:20:48;;;;;;;14.02;4.65;;;6.30;99.90;;;;;;7325493;32;20179;-56
2023/03/04 17:24:50;;;;;;;23.87;9.10;;;6.30;99.90;;;;;;7335750;32;20112;-56
2023/03/04 17:28:51;;;;;;;19.45;6.43;;;6.10;99.90;;;;;;7333571;32;20259;-55
2023/03/04 17:32:53;;;;;;;16.85;6.80;;;6.10;99.90;;;;;;7335836;32;20131;-55
2023/03/04 17:36:55;;;;;;;23.23;10.95;;;6.00;99.90;;;;;;7334740;32;20562;-55
2023/03/04 17:41:04;;;;;;;12.73;5.65;;;6.00;99.90;;;;;;7330825;32;20125;-54
2023/03/04 17:45:08;;;;;;;14.25;5.87;;;6.10;99.90;;;;;;7334392;32;20440;-54
2023/03/04 17:49:10;;;;;;;15.98;5.12;;;6.00;99.90;;;;;;7328926;32;20198;-54
2023/03/04 17:53:12;;;;;;;18.15;5.82;;;5.90;99.90;;;;;;7330544;32;20214;-55
2023/03/04 17:57:14;;;;;;;47.62;20.90;;;6.10;99.90;;;;;;7323628;32;20511;-55
2023/03/04 18:01:18;;;;;;;13.75;4.50;;;6.10;99.90;;;;;;7333240;32;20171;-55
2023/03/04 18:05:20;;;;;;;11.70;2.10;;;6.00;99.90;;;;;;7334357;32;20131;-54
2023/03/04 18:09:21;;;;;;;11.88;2.05;;;6.10;99.90;;;;;;7330097;32;20222;-54
2023/03/04 18:13:23;;;;;;;7.05;2.00;;;6.00;99.90;;;;;;7341277;32;20126;-56
2023/03/04 18:17:25;;;;;;;10.13;1.90;;;5.80;99.90;;;;;;7332444;32;20310;-57
2023/03/04 18:21:28;;;;;;;8.63;2.50;;;5.90;99.90;;;;;;7339512;32;20115;-55
2023/03/04 18:25:30;;;;;;;12.50;3.17;;;6.00;99.90;;;;;;7328882;32;20158;-56
2023/03/04 18:29:33;;;;;;;8.05;2.60;;;5.80;99.90;;;;;;7336776;32;20240;-56
2023/03/04 18:33:35;;;;;;;9.60;2.95;;;5.90;99.90;;;;;;7331968;32;20685;-56
2023/03/04 18:37:37;;;;;;;12.55;4.40;;;5.90;99.90;;;;;;7333493;32;20107;-56
2023/03/04 18:41:39;;;;;;;10.15;3.10;;;5.90;99.90;;;;;;7327410;32;20271;-56
2023/03/04 18:45:40;;;;;;;11.27;2.42;;;6.00;99.90;;;;;;7336552;32;20231;-56
2023/03/04 18:49:44;;;;;;;11.05;2.37;;;6.00;99.90;;;;;;7338281;32;20163;-57
2023/03/04 18:53:46;;;;;;;12.48;3.17;;;6.00;99.90;;;;;;7338066;32;20100;-57
2023/03/04 18:57:52;;;;;;;11.05;2.30;;;5.80;99.90;;;;;;7327276;32;20183;-56
2023/03/04 19:01:54;;;;;;;10.38;2.33;;;6.00;99.90;;;;;;7330163;32;20107;-57
2023/03/04 19:05:55;;;;;;;9.30;2.50;;;5.80;99.90;;;;;;7337441;32;20179;-56
2023/03/04 19:09:57;;;;;;;7.12;1.75;;;5.90;99.90;;;;;;7335040;32;20282;-56
2023/03/04 19:13:59;;;;;;;9.90;1.73;;;5.80;99.90;;;;;;7340601;32;20172;-55
2023/03/04 19:18:01;;;;;;;12.07;2.00;;;5.70;99.90;;;;;;7329427;32;20133;-55
2023/03/04 19:22:03;;;;;;;8.50;2.97;;;5.70;99.90;;;;;;7336638;32;20229;-55
2023/03/04 19:26:06;;;;;;;6.50;2.00;;;5.60;99.90;;;;;;7339043;32;20214;-56
2023/03/04 19:30:08;;;;;;;12.18;2.75;;;5.70;99.90;;;;;;7332000;32;20104;-55
2023/03/04 19:34:10;;;;;;;10.77;2.25;;;5.70;99.90;;;;;;7334551;32;20177;-55
2023/03/04 19:38:12;;;;;;;12.27;5.55;;;5.80;99.90;;;;;;7331521;32;20683;-55
2023/03/04 19:42:14;;;;;;;9.27;2.80;;;5.90;99.90;;;;;;7334812;32;20240;-55
2023/03/04 19:46:16;;;;;;;14.35;5.20;;;5.70;99.90;;;;;;7338777;32;20136;-56
2023/03/04 19:50:19;;;;;;;10.35;2.65;;;5.60;99.90;;;;;;7336773;32;20710;-55
2023/03/04 19:54:20;;;;;;;11.15;3.95;;;5.60;99.90;;;;;;7338970;32;20139;-56
2023/03/04 19:58:22;;;;;;;17.20;8.75;;;5.70;99.90;;;;;;7339772;32;20198;-56
2023/03/04 20:02:24;;;;;;;9.48;3.47;;;5.60;99.90;;;;;;7333316;32;20135;-55
2023/03/04 20:06:26;;;;;;;12.27;2.78;;;5.60;99.90;;;;;;7342450;32;20137;-55
2023/03/04 20:10:35;;;;;;;16.50;3.80;;;5.60;99.90;;;;;;7338378;32;20111;-55
2023/03/04 20:14:38;;;;;;;8.48;3.42;;;5.60;99.90;;;;;;7336490;32;20183;-55
2023/03/04 20:18:41;;;;;;;9.55;3.22;;;5.60;99.90;;;;;;7339126;32;20368;-55
2023/03/04 20:22:43;;;;;;;7.53;2.58;;;5.50;99.90;;;;;;7343134;32;20221;-56
2023/03/04 20:26:45;;;;;;;6.75;2.53;;;5.50;99.90;;;;;;7332376;32;20285;-55
2023/03/04 20:30:47;;;;;;;8.60;2.92;;;5.40;99.90;;;;;;7336071;32;20104;-55
2023/03/04 20:34:52;;;;;;;8.95;2.28;;;5.50;99.90;;;;;;7333776;32;20287;-55
2023/03/04 20:38:55;;;;;;;11.27;1.90;;;5.60;99.90;;;;;;7337360;32;20143;-55
2023/03/04 20:43:05;;;;;;;15.63;2.62;;;5.50;99.90;;;;;;7334414;32;20135;-58
2023/03/04 20:47:07;;;;;;;12.10;3.40;;;5.50;99.90;;;;;;7333060;32;20127;-55
2023/03/04 20:51:09;;;;;;;8.75;2.00;;;5.60;99.90;;;;;;7337198;32;20268;-55
2023/03/04 20:55:11;;;;;;;12.73;2.60;;;5.70;99.90;;;;;;7333010;32;20343;-55
2023/03/04 20:59:13;;;;;;;9.68;2.90;;;5.70;99.90;;;;;;7338640;32;20642;-57
2023/03/04 21:03:14;;;;;;;10.85;2.97;;;5.60;99.90;;;;;;7334583;32;20531;-56
2023/03/04 21:07:16;;;;;;;13.52;2.60;;;5.50;99.90;;;;;;7339593;32;20142;-56
2023/03/04 21:11:18;;;;;;;12.35;2.72;;;5.50;99.90;;;;;;7326329;32;20183;-55
2023/03/04 21:15:21;;;;;;;9.90;2.70;;;5.40;99.90;;;;;;7330556;32;20111;-59
2023/03/04 21:19:29;;;;;;;13.05;3.12;;;5.60;99.90;;;;;;7330642;32;20368;-60